createdAt,value
2023-02-28T00:00:44.055Z,99.90
2023-02-28T00:03:12.066Z,99.90
2023-02-28T00:05:40.234Z,99.90
2023-02-28T00:08:08.274Z,99.90
2023-02-28T00:10:37.916Z,99.90
2023-02-28T00:13:07.731Z,99.90
2023-02-28T00:15:36.206Z,99.90
2023-02-28T00:18:04.713Z,99.90
2023-02-28T00:20:32.891Z,99.90
2023-02-28T00:23:00.934Z,99.90
2023-02-28T00:25:29.235Z,99.90
2023-02-28T00:27:58.850Z,99.90
2023-02-28T00:30:27.461Z,99.90
2023-02-28T00:32:55.519Z,99.90
2023-02-28T00:35:23.536Z,99.90
2023-02-28T00:37:51.674Z,99.90
2023-02-28T00:40:20.027Z,99.90
2023-02-28T00:42:48.324Z,99.90
2023-02-28T00:45:17.802Z,99.90
2023-02-28T00:47:47.436Z,99.90
2023-02-28T00:50:15.593Z,99.90
2023-02-28T00:52:43.723Z,99.90
2023-02-28T00:55:12.108Z,99.90
2023-02-28T00:57:40.897Z,99.90
2023-02-28T01:00:10.417Z,99.90
2023-02-28T01:02:39.795Z,99.90
2023-02-28T01:05:08.609Z,99.90
2023-02-28T01:07:36.631Z,99.90
2023-02-28T01:10:05.245Z,99.90
2023-02-28T01:12:33.219Z,99.90
2023-02-28T01:15:01.203Z,99.90
2023-02-28T01:17:29.205Z,99.90
2023-02-28T01:19:58.542Z,99.90
2023-02-28T01:22:27.019Z,99.90
2023-02-28T01:24:55.134Z,99.90
2023-02-28T01:27:23.542Z,99.90
2023-02-28T01:29:53.142Z,99.90
2023-02-28T01:32:21.165Z,99.90
2023-02-28T01:34:49.230Z,99.90
2023-02-28T01:37:18.663Z,99.90
2023-02-28T01:39:46.665Z,99.90
2023-02-28T01:42:14.759Z,99.90
2023-02-28T01:45:08.533Z,99.90
2023-02-28T01:47:43.255Z,99.90
2023-02-28T01:50:15.311Z,99.90
2023-02-28T01:52:46.122Z,99.90
2023-02-28T01:55:14.904Z,99.90
2023-02-28T01:57:48.236Z,99.90
2023-02-28T02:00:19.951Z,99.90
2023-02-28T02:02:52.945Z,99.90
2023-02-28T02:05:23.530Z,99.90
2023-02-28T02:07:56.583Z,99.90
2023-02-28T02:10:31.196Z,99.90
2023-02-28T02:13:20.761Z,99.90
2023-02-28T02:15:59.062Z,99.90
2023-02-28T02:18:34.838Z,99.90
2023-02-28T02:21:31.393Z,99.90
2023-02-28T02:24:31.750Z,99.90
2023-02-28T02:27:13.259Z,99.90
2023-02-28T02:30:06.930Z,99.90
2023-02-28T02:33:05.116Z,99.90
2023-02-28T02:35:40.813Z,99.90
2023-02-28T02:38:13.272Z,99.90
2023-02-28T02:40:47.181Z,99.90
2023-02-28T02:43:19.674Z,99.90
2023-02-28T02:45:51.558Z,99.90
2023-02-28T02:48:22.760Z,99.90
2023-02-28T02:50:57.824Z,99.90
2023-02-28T02:53:30.760Z,99.90
2023-02-28T02:56:03.201Z,99.90
2023-02-28T02:58:44.004Z,99.90
2023-02-28T03:01:16.747Z,99.90
2023-02-28T03:03:46.461Z,99.90
2023-02-28T03:06:17.310Z,99.90
2023-02-28T03:08:45.314Z,99.90
2023-02-28T03:11:16.674Z,99.90
2023-02-28T03:14:00.243Z,99.90
2023-02-28T03:16:47.580Z,99.90
2023-02-28T03:19:37.304Z,99.90
2023-02-28T03:22:16.842Z,99.90
2023-02-28T03:24:51.689Z,99.90
2023-02-28T03:27:26.404Z,99.90
2023-02-28T03:30:01.306Z,99.90
2023-02-28T03:32:33.682Z,99.90
2023-02-28T03:35:07.012Z,99.90
2023-02-28T03:37:39.751Z,99.90
2023-02-28T03:40:13.712Z,99.90
2023-02-28T03:42:44.927Z,99.90
2023-02-28T03:45:18.703Z,99.90
2023-02-28T03:47:52.657Z,99.90
2023-02-28T03:50:23.828Z,99.90
2023-02-28T03:53:02.050Z,99.90
2023-02-28T03:55:36.596Z,99.90
2023-02-28T03:58:13.330Z,99.90
2023-02-28T04:00:45.795Z,99.90
2023-02-28T04:03:13.915Z,99.90
2023-02-28T04:05:51.908Z,99.90
2023-02-28T04:08:21.545Z,99.90
2023-02-28T04:10:55.734Z,99.90
2023-02-28T04:13:23.847Z,99.90
2023-02-28T04:15:52.533Z,99.90
2023-02-28T04:18:20.686Z,99.90
2023-02-28T04:20:48.791Z,99.90
2023-02-28T04:23:16.954Z,99.90
2023-02-28T04:25:46.450Z,99.90
2023-02-28T04:28:14.594Z,99.90
2023-02-28T04:30:42.646Z,99.90
2023-02-28T04:33:10.898Z,99.90
2023-02-28T04:35:39.404Z,99.90
2023-02-28T04:38:07.608Z,99.90
2023-02-28T04:40:35.702Z,99.90
2023-02-28T04:43:05.397Z,99.90
2023-02-28T04:45:35.005Z,99.90
2023-02-28T04:48:03.377Z,99.90
2023-02-28T04:50:31.510Z,99.90
2023-02-28T04:52:59.744Z,99.90
2023-02-28T04:55:27.858Z,99.90
2023-02-28T04:57:55.968Z,99.90
2023-02-28T05:00:26.170Z,99.90
2023-02-28T05:02:54.392Z,99.90
2023-02-28T05:05:23.124Z,99.90
2023-02-28T05:07:51.280Z,99.90
2023-02-28T05:10:19.471Z,99.90
2023-02-28T05:12:47.458Z,99.90
2023-02-28T05:15:16.883Z,99.90
2023-02-28T05:17:46.880Z,99.90
2023-02-28T05:20:16.319Z,99.90
2023-02-28T05:22:45.457Z,99.90
2023-02-28T05:25:17.513Z,99.90
2023-02-28T05:27:45.950Z,99.90
2023-02-28T05:30:14.450Z,99.90
2023-02-28T05:32:43.799Z,99.90
2023-02-28T05:35:13.769Z,99.90
2023-02-28T05:37:42.033Z,99.90
2023-02-28T05:40:12.193Z,99.90
2023-02-28T05:42:40.476Z,99.90
2023-02-28T05:45:10.025Z,99.90
2023-02-28T05:47:38.167Z,99.90
2023-02-28T05:50:07.770Z,99.90
2023-02-28T05:52:37.218Z,99.90
2023-02-28T05:55:06.281Z,99.90
2023-02-28T05:57:34.364Z,99.90
2023-02-28T06:00:02.489Z,99.90
2023-02-28T06:02:41.779Z,99.90
2023-02-28T06:05:16.012Z,99.90
2023-02-28T06:07:46.240Z,99.90
2023-02-28T06:10:15.146Z,99.90
2023-02-28T06:12:44.085Z,99.90
2023-02-28T06:15:15.019Z,99.90
2023-02-28T06:17:43.389Z,99.90
2023-02-28T06:20:13.779Z,99.90
2023-02-28T06:22:44.549Z,99.90
2023-02-28T06:25:13.990Z,99.90
2023-02-28T06:27:42.052Z,99.90
2023-02-28T06:30:11.488Z,99.90
2023-02-28T06:32:40.236Z,99.90
2023-02-28T06:35:09.024Z,99.90
2023-02-28T06:37:37.059Z,99.90
2023-02-28T06:40:07.877Z,99.90
2023-02-28T06:42:37.563Z,99.90
2023-02-28T06:45:10.050Z,99.90
2023-02-28T06:47:39.086Z,99.90
2023-02-28T06:50:09.132Z,99.90
2023-02-28T06:52:38.296Z,99.90
2023-02-28T06:55:07.829Z,99.90
2023-02-28T06:57:37.892Z,99.90
2023-02-28T07:00:08.690Z,99.90
2023-02-28T07:02:38.397Z,99.90
2023-02-28T07:05:07.008Z,99.90
2023-02-28T07:07:36.923Z,99.90
2023-02-28T07:10:05.270Z,99.90
2023-02-28T07:12:33.288Z,99.90
2023-02-28T07:15:02.639Z,99.90
2023-02-28T07:17:32.884Z,99.90
2023-02-28T07:20:01.147Z,99.90
2023-02-28T07:22:30.040Z,99.90
2023-02-28T07:24:58.214Z,99.90
2023-02-28T07:27:26.671Z,99.90
2023-02-28T07:29:55.760Z,99.90
2023-02-28T07:32:25.350Z,99.90
2023-02-28T07:34:53.628Z,99.90
2023-02-28T07:37:23.097Z,99.90
2023-02-28T07:39:52.318Z,99.90
2023-02-28T07:42:20.697Z,99.90
2023-02-28T07:44:48.826Z,99.90
2023-02-28T07:47:16.981Z,99.90
2023-02-28T07:49:47.478Z,99.90
2023-02-28T07:52:15.532Z,99.90
2023-02-28T07:54:43.719Z,99.90
2023-02-28T07:57:11.868Z,99.90
2023-02-28T07:59:40.614Z,99.90
2023-02-28T08:02:09.062Z,99.90
2023-02-28T08:04:37.174Z,99.90
2023-02-28T08:07:06.636Z,99.90
2023-02-28T08:09:35.076Z,99.90
2023-02-28T08:12:03.106Z,99.90
2023-02-28T08:14:31.274Z,99.90
2023-02-28T08:16:59.262Z,99.90
2023-02-28T08:19:27.498Z,99.90
2023-02-28T08:21:55.989Z,99.70
2023-02-28T08:24:25.664Z,99.00
2023-02-28T08:26:54.085Z,98.40
2023-02-28T08:29:22.151Z,97.60
2023-02-28T08:31:50.717Z,97.30
2023-02-28T08:34:19.489Z,96.20
2023-02-28T08:36:47.814Z,96.30
2023-02-28T08:39:16.411Z,96.20
2023-02-28T08:41:47.972Z,95.40
2023-02-28T08:44:17.465Z,95.40
2023-02-28T08:46:47.761Z,95.00
2023-02-28T08:49:16.412Z,94.50
2023-02-28T08:51:44.382Z,94.30
2023-02-28T08:54:18.414Z,94.20
2023-02-28T08:56:48.691Z,93.70
2023-02-28T08:59:17.844Z,92.90
2023-02-28T09:01:46.037Z,92.20
2023-02-28T09:04:17.158Z,92.40
2023-02-28T09:06:49.620Z,92.00
2023-02-28T09:09:18.069Z,91.40
2023-02-28T09:11:47.545Z,91.10
2023-02-28T09:14:15.546Z,91.30
2023-02-28T09:16:43.982Z,90.70
2023-02-28T09:19:13.283Z,90.40
2023-02-28T09:21:41.319Z,90.80
2023-02-28T09:24:10.255Z,89.70
2023-02-28T09:26:43.417Z,89.80
2023-02-28T09:29:18.497Z,89.80
2023-02-28T09:31:47.391Z,90.20
2023-02-28T09:34:15.782Z,88.80
2023-02-28T09:36:46.293Z,89.10
2023-02-28T09:39:16.728Z,88.00
2023-02-28T09:41:51.202Z,87.50
2023-02-28T09:44:29.995Z,87.20
2023-02-28T09:47:02.325Z,87.10
2023-02-28T09:49:38.747Z,87.80
2023-02-28T09:52:11.395Z,87.40
2023-02-28T09:54:41.319Z,87.20
2023-02-28T09:57:16.550Z,86.70
2023-02-28T09:59:56.920Z,86.80
2023-02-28T10:02:51.354Z,87.00
2023-02-28T10:05:22.823Z,85.80
2023-02-28T10:08:02.476Z,86.10
2023-02-28T10:10:35.278Z,85.10
2023-02-28T10:13:07.523Z,84.80
2023-02-28T10:15:41.848Z,85.30
2023-02-28T10:18:15.997Z,85.40
2023-02-28T10:20:49.127Z,84.80
2023-02-28T10:23:22.121Z,84.50
2023-02-28T10:25:56.221Z,84.70
2023-02-28T10:28:26.575Z,84.70
2023-02-28T10:30:57.045Z,84.60
2023-02-28T10:33:27.786Z,84.30
2023-02-28T10:35:56.654Z,84.80
2023-02-28T10:38:26.902Z,83.90
2023-02-28T10:41:09.785Z,83.80
2023-02-28T10:43:39.840Z,83.90
2023-02-28T10:46:27.123Z,83.80
2023-02-28T10:49:05.814Z,84.80
2023-02-28T10:51:39.243Z,85.10
2023-02-28T10:54:16.290Z,84.30
2023-02-28T10:56:44.656Z,83.80
2023-02-28T10:59:30.915Z,84.00
2023-02-28T11:02:00.859Z,83.70
2023-02-28T11:04:41.386Z,83.40
2023-02-28T11:07:22.998Z,84.20
2023-02-28T11:09:55.608Z,83.10
2023-02-28T11:12:29.458Z,81.70
2023-02-28T11:15:04.361Z,82.00
2023-02-28T11:17:39.350Z,82.90
2023-02-28T11:20:16.546Z,83.20
2023-02-28T11:22:48.654Z,83.90
2023-02-28T11:25:23.804Z,84.30
2023-02-28T11:27:53.507Z,84.00
2023-02-28T11:30:30.620Z,83.80
2023-02-28T11:33:00.927Z,83.10
2023-02-28T11:35:35.695Z,83.50
2023-02-28T11:38:04.304Z,83.10
2023-02-28T11:40:41.227Z,83.30
2023-02-28T11:43:23.069Z,84.40
2023-02-28T11:46:07.398Z,83.90
2023-02-28T11:48:47.493Z,83.80
2023-02-28T11:51:22.839Z,83.50
2023-02-28T11:54:12.682Z,84.70
2023-02-28T11:56:45.800Z,83.80
2023-02-28T11:59:30.538Z,82.40
2023-02-28T12:02:35.244Z,82.30
2023-02-28T12:05:27.035Z,82.60
2023-02-28T12:08:06.228Z,81.50
2023-02-28T12:10:40.855Z,81.40
2023-02-28T12:13:20.246Z,80.50
2023-02-28T12:16:42.436Z,80.50
2023-02-28T12:19:21.658Z,79.80
2023-02-28T12:22:18.411Z,79.30
2023-02-28T12:25:30.681Z,79.90
2023-02-28T12:27:59.174Z,78.70
2023-02-28T12:30:32.851Z,79.20
2023-02-28T12:33:08.442Z,79.80
2023-02-28T12:35:40.882Z,79.40
2023-02-28T12:38:18.883Z,79.40
2023-02-28T12:40:53.556Z,79.20
2023-02-28T12:43:24.752Z,78.70
2023-02-28T12:45:56.865Z,79.10
2023-02-28T12:48:31.583Z,79.10
2023-02-28T12:51:03.172Z,79.00
2023-02-28T12:53:45.255Z,78.10
2023-02-28T12:56:22.384Z,78.30
2023-02-28T12:58:56.912Z,78.30
2023-02-28T13:01:59.204Z,77.70
2023-02-28T13:04:49.798Z,76.80
2023-02-28T13:07:54.516Z,76.80
2023-02-28T13:10:24.600Z,77.10
2023-02-28T13:12:57.599Z,76.70
2023-02-28T13:15:29.575Z,76.40
2023-02-28T13:18:00.279Z,76.90
2023-02-28T13:20:38.380Z,77.60
2023-02-28T13:23:47.554Z,76.60
2023-02-28T13:26:17.368Z,74.20
2023-02-28T13:29:30.571Z,72.00
2023-02-28T13:32:22.320Z,73.10
2023-02-28T13:35:16.152Z,72.70
2023-02-28T13:37:45.867Z,72.20
2023-02-28T13:40:38.999Z,71.80
2023-02-28T13:43:11.483Z,70.50
2023-02-28T13:45:40.755Z,70.70
2023-02-28T13:48:19.904Z,70.50
2023-02-28T13:50:48.426Z,70.90
2023-02-28T13:53:50.895Z,70.90
2023-02-28T13:56:31.740Z,70.80
2023-02-28T13:59:14.820Z,69.80
2023-02-28T14:01:53.706Z,69.40
2023-02-28T14:05:02.128Z,67.50
2023-02-28T14:07:36.402Z,65.20
2023-02-28T14:10:09.258Z,63.70
2023-02-28T14:13:01.187Z,62.20
2023-02-28T14:15:45.940Z,61.40
2023-02-28T14:18:27.406Z,59.70
2023-02-28T14:21:00.844Z,59.10
2023-02-28T14:23:44.652Z,57.70
2023-02-28T14:26:21.393Z,57.60
2023-02-28T14:29:15.897Z,54.10
2023-02-28T14:31:50.569Z,50.30
2023-02-28T14:34:39.484Z,49.60
2023-02-28T14:37:08.922Z,49.90
2023-02-28T14:39:37.898Z,50.50
2023-02-28T14:42:26.190Z,50.90
2023-02-28T14:44:57.343Z,49.80
2023-02-28T14:47:30.927Z,48.30
2023-02-28T14:50:00.161Z,48.90
2023-02-28T14:52:30.739Z,51.20
2023-02-28T14:55:00.803Z,53.00
2023-02-28T14:57:30.810Z,54.10
2023-02-28T15:00:11.470Z,56.30
2023-02-28T15:02:42.437Z,56.70
2023-02-28T15:05:25.536Z,57.80
2023-02-28T15:08:06.268Z,58.80
2023-02-28T15:10:36.245Z,59.20
2023-02-28T15:13:07.844Z,59.70
2023-02-28T15:16:01.360Z,60.30
2023-02-28T15:18:39.687Z,60.30
2023-02-28T15:21:10.062Z,61.00
2023-02-28T15:23:40.177Z,61.40
2023-02-28T15:26:08.869Z,61.60
2023-02-28T15:28:36.960Z,62.00
2023-02-28T15:31:20.475Z,62.40
2023-02-28T15:33:57.174Z,62.80
2023-02-28T15:36:29.031Z,62.70
2023-02-28T15:39:01.643Z,63.40
2023-02-28T15:41:40.009Z,63.70
2023-02-28T15:44:20.127Z,63.70
2023-02-28T15:46:58.804Z,64.50
2023-02-28T15:49:28.475Z,64.10
2023-02-28T15:51:59.950Z,64.40
2023-02-28T15:54:33.988Z,64.70
2023-02-28T15:57:07.220Z,64.80
2023-02-28T15:59:35.473Z,65.00
2023-02-28T16:02:17.465Z,65.90
2023-02-28T16:05:29.042Z,66.20
2023-02-28T16:07:57.703Z,66.30
2023-02-28T16:10:27.867Z,66.80
2023-02-28T16:12:57.023Z,66.40
2023-02-28T16:15:27.882Z,66.50
2023-02-28T16:17:56.782Z,67.00
2023-02-28T16:20:28.856Z,67.10
2023-02-28T16:22:57.739Z,66.60
2023-02-28T16:25:31.553Z,66.70
2023-02-28T16:28:01.295Z,67.00
2023-02-28T16:30:32.493Z,66.90
2023-02-28T16:33:00.971Z,67.20
2023-02-28T16:35:30.567Z,67.70
2023-02-28T16:37:58.882Z,68.10
2023-02-28T16:40:29.611Z,68.30
2023-02-28T16:43:01.737Z,68.60
2023-02-28T16:45:31.121Z,68.70
2023-02-28T16:47:59.528Z,68.10
2023-02-28T16:50:31.175Z,68.70
2023-02-28T16:52:59.179Z,69.10
2023-02-28T16:55:28.862Z,69.10
2023-02-28T16:57:59.700Z,69.00
2023-02-28T17:00:29.663Z,69.70
2023-02-28T17:02:58.332Z,70.00
2023-02-28T17:05:28.061Z,69.80
2023-02-28T17:07:57.554Z,70.00
2023-02-28T17:10:28.406Z,70.30
2023-02-28T17:13:06.030Z,70.50
2023-02-28T17:15:38.316Z,70.90
2023-02-28T17:18:07.124Z,71.50
2023-02-28T17:20:35.244Z,71.40
2023-02-28T17:23:04.875Z,72.30
2023-02-28T17:25:32.987Z,72.20
2023-02-28T17:28:01.143Z,72.70
2023-02-28T17:30:29.845Z,73.10
2023-02-28T17:32:58.316Z,73.30
2023-02-28T17:35:27.787Z,73.70
2023-02-28T17:37:55.996Z,74.10
2023-02-28T17:40:26.044Z,74.50
2023-02-28T17:42:57.306Z,75.00
2023-02-28T17:45:25.942Z,75.20
2023-02-28T17:47:53.973Z,75.40
2023-02-28T17:50:26.137Z,75.90
2023-02-28T17:52:54.415Z,76.10
2023-02-28T17:55:22.526Z,76.30
2023-02-28T17:57:52.019Z,77.00
2023-02-28T18:00:25.003Z,77.10
2023-02-28T18:02:53.478Z,77.50
2023-02-28T18:05:21.670Z,77.90
2023-02-28T18:07:49.831Z,78.30
2023-02-28T18:10:20.473Z,78.40
2023-02-28T18:12:49.575Z,79.20
2023-02-28T18:15:20.996Z,80.70
2023-02-28T18:17:49.163Z,82.00
2023-02-28T18:20:17.754Z,83.10
2023-02-28T18:22:46.365Z,84.40
2023-02-28T18:25:16.946Z,85.40
2023-02-28T18:27:54.334Z,87.30
2023-02-28T18:30:28.113Z,88.90
2023-02-28T18:32:57.925Z,90.50
2023-02-28T18:35:39.386Z,91.30
2023-02-28T18:38:10.317Z,92.10
2023-02-28T18:40:39.163Z,93.20
2023-02-28T18:43:08.924Z,93.90
2023-02-28T18:45:40.063Z,94.70
2023-02-28T18:48:08.318Z,95.30
2023-02-28T18:50:39.891Z,96.00
2023-02-28T18:53:08.664Z,96.50
2023-02-28T18:55:37.584Z,97.10
2023-02-28T18:58:06.161Z,97.50
2023-02-28T19:00:39.314Z,97.70
2023-02-28T19:03:08.043Z,98.10
2023-02-28T19:05:36.124Z,98.50
2023-02-28T19:08:05.225Z,98.70
2023-02-28T19:10:41.972Z,99.40
2023-02-28T19:13:13.192Z,99.50
2023-02-28T19:15:43.070Z,99.70
2023-02-28T19:18:11.321Z,99.90
2023-02-28T19:20:39.868Z,99.90
2023-02-28T19:23:12.973Z,99.90
2023-02-28T19:25:43.667Z,99.90
2023-02-28T19:28:11.910Z,99.90
2023-02-28T19:30:41.955Z,99.90
2023-02-28T19:33:11.662Z,99.90
2023-02-28T19:35:41.526Z,99.90
2023-02-28T19:38:10.035Z,99.90
2023-02-28T19:40:39.080Z,99.90
2023-02-28T19:43:08.378Z,99.90
2023-02-28T19:45:37.107Z,99.90
2023-02-28T19:48:08.257Z,99.90
2023-02-28T19:50:38.496Z,99.90
2023-02-28T19:53:06.546Z,99.90
2023-02-28T19:55:34.573Z,99.90
2023-02-28T19:58:02.882Z,99.90
2023-02-28T20:00:31.097Z,99.90
2023-02-28T20:02:59.495Z,99.90
2023-02-28T20:05:29.291Z,99.90
2023-02-28T20:07:59.332Z,99.90
2023-02-28T20:10:28.638Z,99.90
2023-02-28T20:12:56.809Z,99.90
2023-02-28T20:15:24.865Z,99.90
2023-02-28T20:17:52.914Z,99.90
2023-02-28T20:20:21.055Z,99.90
2023-02-28T20:22:49.148Z,99.90
2023-02-28T20:25:18.802Z,99.90
2023-02-28T20:27:46.898Z,99.90
2023-02-28T20:30:15.325Z,99.90
2023-02-28T20:32:43.494Z,99.90
2023-02-28T20:35:12.259Z,99.90
2023-02-28T20:37:41.046Z,99.90
2023-02-28T20:40:11.156Z,99.90
2023-02-28T20:42:40.606Z,99.90
2023-02-28T20:45:10.171Z,99.90
2023-02-28T20:47:38.484Z,99.90
2023-02-28T20:50:08.098Z,99.90
2023-02-28T20:52:36.338Z,99.90
2023-02-28T20:55:05.148Z,99.90
2023-02-28T20:57:33.290Z,99.90
2023-02-28T21:00:03.858Z,99.90
2023-02-28T21:02:32.180Z,99.90
2023-02-28T21:05:01.025Z,99.90
2023-02-28T21:07:29.422Z,99.90
2023-02-28T21:09:57.748Z,99.90
2023-02-28T21:12:26.016Z,99.90
2023-02-28T21:14:54.185Z,99.90
2023-02-28T21:17:24.023Z,99.90
2023-02-28T21:19:52.234Z,99.90
2023-02-28T21:22:20.400Z,99.90
2023-02-28T21:24:48.948Z,99.90
2023-02-28T21:27:17.097Z,99.90
2023-02-28T21:29:45.113Z,99.90
2023-02-28T21:32:17.575Z,99.90
2023-02-28T21:34:48.949Z,99.90
2023-02-28T21:37:17.242Z,99.90
2023-02-28T21:39:48.486Z,99.90
2023-02-28T21:42:17.007Z,99.90
2023-02-28T21:44:45.198Z,99.90
2023-02-28T21:47:13.632Z,99.90
2023-02-28T21:49:41.903Z,99.90
2023-02-28T21:52:11.375Z,99.90
2023-02-28T21:54:39.516Z,99.90
2023-02-28T21:57:07.646Z,99.90
2023-02-28T21:59:39.200Z,99.90
2023-02-28T22:02:10.656Z,99.90
2023-02-28T22:04:40.449Z,99.90
2023-02-28T22:07:08.600Z,99.90
2023-02-28T22:09:38.119Z,99.90
2023-02-28T22:12:08.426Z,99.90
2023-02-28T22:14:37.108Z,99.90
2023-02-28T22:17:05.500Z,99.90
2023-02-28T22:19:33.512Z,99.90
2023-02-28T22:22:01.546Z,99.90
2023-02-28T22:24:29.668Z,99.90
2023-02-28T22:26:59.378Z,99.90
2023-02-28T22:29:27.432Z,99.90
2023-02-28T22:31:55.479Z,99.90
2023-02-28T22:34:23.790Z,99.90
2023-02-28T22:36:52.072Z,99.90
2023-02-28T22:39:20.970Z,99.90
2023-02-28T22:41:48.936Z,99.90
2023-02-28T22:44:18.330Z,99.90
2023-02-28T22:46:46.423Z,99.90
2023-02-28T22:49:14.592Z,99.90
2023-02-28T22:51:42.628Z,99.90
2023-02-28T22:54:11.138Z,99.90
2023-02-28T22:56:39.259Z,99.90
2023-02-28T22:59:07.790Z,99.90
2023-02-28T23:01:37.270Z,99.90
2023-02-28T23:04:05.727Z,99.90
2023-02-28T23:06:37.717Z,99.90
2023-02-28T23:09:09.061Z,99.90
2023-02-28T23:11:40.810Z,99.90
2023-02-28T23:14:10.005Z,99.90
2023-02-28T23:16:42.122Z,99.90
2023-02-28T23:19:12.529Z,99.90
2023-02-28T23:21:41.399Z,99.90
2023-02-28T23:24:11.791Z,99.90
2023-02-28T23:26:43.194Z,99.90
2023-02-28T23:29:12.434Z,99.90
2023-02-28T23:31:42.652Z,99.90
2023-02-28T23:34:11.284Z,99.90
2023-02-28T23:36:43.470Z,99.90
2023-02-28T23:39:11.589Z,99.90
2023-02-28T23:41:39.820Z,99.90
2023-02-28T23:44:07.975Z,99.90
2023-02-28T23:46:36.014Z,99.90
2023-02-28T23:49:05.317Z,99.90
2023-02-28T23:51:33.360Z,99.90
2023-02-28T23:54:02.913Z,99.90
2023-02-28T23:56:31.837Z,99.90
2023-02-28T23:59:00.401Z,99.90
